Station: Badgingarra  

  Atmospheric Gas Attenuation - ITU Rec 676-11   ----------------- dB/100km -----------------
Date Time Temp RH % AH g/m3 Dew Point Wind Direction Speed kph Gust kph Barometer mB Rainfall Since 9am 24GHz 47GHz 76GHz 122GHz 134GHz 241GHz
03/09 10:30 16.1 64 8.77 9.3 11 15 1013.1 0 19.8 25.5 39.3 103.2 97.7 336.4
03/09 10:20 16.3 64 8.88 9.5 11 17 1013.1 0 20.1 25.6 39.7 104.1 98.9 340.5
03/09 10:10 16.1 64 8.77 9.3 11 17 1013.1 0 19.8 25.5 39.3 103.2 97.7 336.4
03/09 10:00 16.6 65 9.18 10 11 17 1013.1 0 20.7 26.0 40.7 106.8 102.4 352.7
03/09 09:50 15.9 66 8.94 9.6 11 15 1013.1 0 20.2 25.8 40.1 105.3 100.2 344.9
03/09 09:40 15.7 68 9.1 9.8 13 19 1013.1 0 20.6 26.1 40.8 107.2 102.5 353.1
03/09 09:30 15.4 69 9.07 9.7 13 17 1013.1 0 20.5 26.2 40.9 107.3 102.5 353.1
03/09 09:20 15.1 72 9.29 10.1 11 15 1013.1 0 21.0 26.6 41.9 110.1 105.8 364.6
03/09 09:10 14.7 72 9.07 9.7 9 13 1013.1 0 20.5 26.4 41.2 108.3 103.4 356.2
03/09 09:00 14 73 8.81 9.2 9 11 1013.1 0 20.0 26.2 40.5 106.4 100.9 347.3
03/09 08:50 13.6 72 8.47 8.7 9 15 1013.1 0 19.3 25.7 39.4 103.3 96.9 333.3
03/09 08:40 13.3 74 8.55 8.8 6 7 1013.1 0 19.5 26.0 39.8 104.6 98.4 338.3
03/09 08:30 12.6 78 8.63 8.9 7 9 1013.1 0 19.7 26.3 40.5 106.4 100.3 345.1
03/09 08:20 12.1 79 8.47 8.6 9 11 1013.1 0 19.4 26.2 40.1 105.3 98.8 339.7
03/09 08:10 11.9 79 8.37 8.4 7 9 1013.1 0 19.2 26.1 39.8 104.5 97.7 335.9
03/09 08:00 11.6 80 8.32 8.3 6 7 1013.1 0 19.1 26.1 39.8 104.3 97.4 334.8
03/09 07:50 11.1 79 7.96 7.6 6 6 1013.1 0 18.3 25.6 38.5 101.1 93.2 320.0
03/09 07:40 10.9 80 7.96 7.6 6 7 1013.1 0 18.4 25.7 38.6 101.3 93.5 320.8
03/09 07:30 10.7 81 7.96 7.6 6 6 1013.1 0 18.4 25.7 38.7 101.6 93.7 321.6
03/09 07:20 10.7 80 7.86 7.4 6 7 1013.1 0 18.1 25.6 38.3 100.5 92.4 316.9
03/09 07:10 10.8 78 7.71 7.1 7 9 1013.1 0 17.8 25.3 37.7 98.7 90.2 309.5
03/09 07:00 10.6 82 8.01 7.7 7 9 1013.1 0 18.5 25.9 39.0 102.3 94.5 324.4
03/09 06:50 10 85 7.99 7.6 6 7 1013.1 0 18.5 26.0 39.2 102.8 95.0 326.0
03/09 06:40 10 84 7.9 7.4 6 7 1013.1 0 18.3 25.8 38.8 101.8 93.7 321.7
03/09 06:30 10.1 83 7.85 7.3 6 7 1013.1 0 18.2 25.7 38.6 101.2 92.9 318.9
03/09 06:20 10.2 83 7.9 7.4 7 11 1013.1 0 18.3 25.8 38.7 101.6 93.5 320.8
03/09 06:10 10 85 7.99 7.6 9 11 1013.1 0 18.5 26.0 39.2 102.8 95.0 326.0
03/09 06:00 9.5 88 8.01 7.6 9 13 1013.1 0 18.5 26.2 39.5 103.7 95.9 329.0
03/09 05:50 9 90 7.94 7.5 11 13 1013.1 0 18.4 26.2 39.5 103.6 95.5 327.8
03/09 05:40 8.4 88 7.47 6.5 7 9 1013.1 0 17.4 25.6 37.8 99.1 89.8 307.6
03/09 05:30 8.7 88 7.61 6.8 6 7 1013.1 0 17.7 25.7 38.3 100.3 91.4 313.1
03/09 05:20 9 89 7.85 7.3 4 6 1013.1 0 18.2 26.1 39.1 102.6 94.3 323.4
03/09 05:10 8.6 89 7.65 6.9 6 6 1013.1 0 17.8 25.8 38.5 100.9 92.0 315.5
03/09 05:00 9 89 7.85 7.3 6 6 1013.1 0 18.2 26.1 39.1 102.6 94.3 323.4
03/09 04:50 9.4 89 8.05 7.7 6 7 1013.1 0 18.6 26.3 39.8 104.3 96.5 331.4
03/09 04:40 9.4 90 8.14 7.8 6 6 1013.1 0 18.8 26.4 40.1 105.3 97.8 335.7
03/09 04:30 9.5 92 8.38 8.3 6 6 1013.1 0 19.3 26.8 41.1 107.9 101.0 346.9
03/09 04:20 9.2 91 8.13 7.8 6 6 1013.1 0 18.8 26.5 40.2 105.4 97.9 336.1
03/09 04:10 9.3 91 8.18 7.9 6 6 1013.1 0 18.9 26.5 40.3 105.9 98.5 338.1
03/09 04:00 9.7 92 8.48 8.5 6 7 1013.1 0 19.5 26.9 41.4 108.7 102.1 350.9
03/09 03:50 9.4 92 8.32 8.1 4 6 1013.1 0 19.2 26.7 40.9 107.3 100.3 344.4
03/09 03:40 9.3 93 8.36 8.2 6 6 1013.1 0 19.3 26.8 41.1 107.9 101.0 346.8
03/09 03:30 9.3 92 8.27 8.1 4 6 1013.1 0 19.1 26.7 40.7 106.9 99.7 342.4
03/09 03:20 9.1 93 8.25 8 6 6 1013.1 0 19.1 26.7 40.7 106.9 99.7 342.3
03/09 03:10 8.9 93 8.15 7.8 6 6 1013.1 0 18.9 26.6 40.4 106.1 98.5 338.3
03/09 03:00 8.7 92 7.96 7.5 6 6 1013.1 0 18.5 26.3 39.7 104.2 96.2 330.0
03/09 02:50 8.8 91 7.92 7.5 6 6 1013.1 0 18.4 26.2 39.5 103.6 95.5 327.6
03/09 02:40 8.8 92 8.01 7.6 0 6 1013.1 0 18.6 26.4 39.9 104.6 96.7 332.0
03/09 02:30 8.7 92 7.96 7.5 0 0 1013.1 0 18.5 26.3 39.7 104.2 96.2 330.0
03/09 02:20 8.7 93 8.05 7.6 0 0 1013.1 0 18.7 26.5 40.1 105.2 97.4 334.4
03/09 02:10 8.3 91 7.67 7 0 0 1013.1 0 17.8 26.0 38.7 101.5 92.7 317.6
03/09 02:00 8 91 7.53 6.6 0 0 1013.1 0 17.6 25.8 38.3 100.3 91.1 312.1
03/09 01:50 8.1 91 7.58 6.7 0 0 1013.1 0 17.7 25.9 38.4 100.8 91.7 314.1
03/09 01:40 8 91 7.53 6.6 0 0 1013.1 0 17.6 25.8 38.3 100.3 91.1 312.1
03/09 01:30 7.8 89 7.27 6.1 0 0 1013.1 0 17.0 25.4 37.3 97.7 87.8 300.4
03/09 01:20 8.3 87 7.34 6.2 0 0 1013.1 0 17.1 25.4 37.3 97.8 88.1 301.8
03/09 01:10 9.4 89 8.05 7.7 0 0 1013.1 0 18.6 26.3 39.8 104.3 96.5 331.4
03/09 01:00 9.4 90 8.14 7.8 0 0 1013.1 0 18.8 26.4 40.1 105.3 97.8 335.7
03/09 00:50 9.4 88 7.96 7.6 0 0 1013.1 0 18.4 26.1 39.4 103.3 95.3 327.0
03/09 00:40 9.2 88 7.86 7.4 0 0 1013.1 0 18.2 26.0 39.1 102.4 94.2 323.1
03/09 00:30 9.8 87 8.07 7.7 0 0 1013.1 0 18.6 26.2 39.6 104.0 96.3 330.6
03/09 00:20 10 88 8.27 8.1 0 0 1013.1 0 19.1 26.5 40.4 105.9 98.8 339.4
03/09 00:10 10.1 86 8.13 7.9 2 4 1013.1 0 18.8 26.2 39.7 104.2 96.7 332.2
03/09 00:00 11.5 84 8.68 8.9 2 4 1013.1 0 19.9 26.7 41.3 108.4 102.5 352.4
02/09 23:50 11.7 84 8.79 9.1 2 7 1013.1 0 20.1 26.8 41.6 109.4 103.7 356.7
02/09 23:40 12.2 82 8.85 9.2 0 0 1013.1 0 20.2 26.8 41.6 109.3 103.8 357.3
02/09 23:30 12.2 84 9.07 9.6 0 4 1013.1 0 20.7 27.1 42.5 111.8 106.8 367.8
02/09 23:20 12.3 83 9.01 9.6 0 0 1013.1 0 20.5 27.0 42.2 111.0 105.9 364.5
02/09 23:10 12.4 85 9.29 9.9 0 0 1013.1 0 21.1 27.5 43.4 113.9 109.6 377.5
02/09 23:00 12.4 84 9.18 9.8 2 4 1013.1 0 20.9 27.3 42.9 112.7 108.1 372.2
02/09 22:50 12.3 84 9.12 9.7 4 6 1013.1 0 20.8 27.2 42.7 112.2 107.4 369.8
02/09 22:40 12.1 85 9.12 9.7 6 7 1013.1 0 20.8 27.3 42.8 112.5 107.7 370.7
02/09 22:30 12.1 86 9.22 9.8 6 7 1013.1 0 21.0 27.4 43.2 113.6 109.1 375.5
02/09 22:20 12 85 9.06 9.6 6 7 1013.1 0 20.7 27.2 42.6 112.0 107.0 368.3
02/09 22:10 12.2 85 9.17 9.8 4 6 1013.1 0 20.9 27.3 43.0 112.9 108.2 372.6
02/09 22:00 12.2 83 8.96 9.4 6 7 1013.1 0 20.4 27.0 42.1 110.6 105.3 362.6
02/09 21:50 12.2 82 8.85 9.2 6 9 1013.1 0 20.2 26.8 41.6 109.3 103.8 357.3
02/09 21:40 12.4 80 8.74 9.1 6 9 1013.1 0 20.0 26.5 41.1 107.8 102.1 351.2
02/09 21:30 12.4 79 8.63 8.9 7 9 1013.1 0 19.7 26.3 40.6 106.6 100.6 346.0
02/09 21:20 12.5 78 8.58 8.8 7 11 1013.1 0 19.6 26.2 40.4 106.0 99.8 343.2
02/09 21:10 12.4 80 8.74 9.1 7 9 1013.1 0 20.0 26.5 41.1 107.8 102.1 351.2
02/09 21:00 12.5 79 8.69 9 9 13 1013.1 0 19.8 26.4 40.8 107.2 101.3 348.4
02/09 20:50 12.5 78 8.58 8.8 9 13 1013.1 0 19.6 26.2 40.4 106.0 99.8 343.2
02/09 20:40 12.5 80 8.8 9.1 6 9 1013.1 0 20.1 26.6 41.3 108.4 102.8 353.6
02/09 20:30 12.5 80 8.8 9.1 7 9 1013.1 0 20.1 26.6 41.3 108.4 102.8 353.6
02/09 20:20 12.5 79 8.69 9 9 11 1013.1 0 19.8 26.4 40.8 107.2 101.3 348.4
02/09 20:10 12.6 79 8.74 9.1 9 11 1013.1 0 19.9 26.5 41.0 107.6 101.8 350.3
02/09 20:00 12.7 77 8.57 8.8 9 13 1013.1 0 19.6 26.2 40.2 105.6 99.4 341.8
02/09 19:50 12.7 78 8.68 9 9 15 1013.1 0 19.8 26.3 40.7 106.8 100.9 347.0
02/09 19:40 12.7 80 8.91 9.3 9 9 1013.1 0 20.3 26.7 41.6 109.3 104.0 357.9
02/09 19:30 12.9 78 8.79 9.2 7 9 1013.1 0 20.0 26.5 41.0 107.7 102.1 351.3
02/09 19:20 13.1 76 8.67 9 9 13 1013.1 0 19.8 26.2 40.4 106.1 100.2 344.8
02/09 19:10 13.2 75 8.61 8.9 11 11 1013.1 0 19.6 26.1 40.1 105.3 99.3 341.5
02/09 19:00 13.2 76 8.73 9.1 9 11 1013.1 0 19.9 26.3 40.6 106.6 100.9 347.1
02/09 18:50 13.4 76 8.84 9.3 7 9 1013.1 0 20.1 26.4 41.0 107.6 102.1 351.4
02/09 18:40 13.7 76 9 9.6 4 6 1013.1 0 20.5 26.6 41.5 108.9 103.8 357.5
02/09 18:30 13.9 74 8.87 9.3 0 4 1013.1 0 20.2 26.3 40.8 107.2 101.8 350.5
02/09 18:20 13.9 73 8.75 9.1 0 0 1013.1 0 19.9 26.1 40.3 105.9 100.2 345.0
02/09 18:10 14 75 9.05 9.6 0 0 1013.1 0 20.5 26.6 41.5 109.0 104.1 358.5
02/09 18:00 14.1 75 9.1 9.7 4 6 1013.1 0 20.6 26.6 41.7 109.4 104.6 360.4

Last Refresh: 03-Sep-2026 12:14:06

Bureau of Meteorology